Blooming Grove, New York
Current Conditions -  °F | °C
As of 4:45 PM on Monday 22 Dec 2014 (Local Time) from KSWF Reporting Station
Drizzle Drizzle  
Wind Chill:   Ceiling: 2000
Heat Index:   Visibility: 5mi
Dew Point:   Wind: 5mph
Humidity: 87%   Direction: NA
Pressure: 30.25"   Gusts: NA
Location:  41.41°N, 74.19°W
Report Text: KSWF 222145Z VRB04KT 5SM -DZ BR OVC020 03/01 A3025
Loading
Personal Weather Stations






























Interactive Weather Map New forecast layout! Learn more

10-Day Weather Forecast

Advertisements
Track Severe Weather on mobile